Time;durP1;ratioP1;P1;durP2;ratioP2;P2;SDS_P1;SDS_P2;PMS_P1;PMS_P2;Temp;Humidity;BMP_temperature;BMP_pressure;BME280_temperature;BME280_humidity;BME280_pressure;Samples;Min_cycle;Max_cycle;Signal;HPM_P1;HPM_P2
2022/05/19 00:01:51;;;;;;;9.75;2.67;;;19.40;80.20;;;;;;5048213;28;20029;-71
2022/05/19 00:04:17;;;;;;;10.07;3.03;;;19.40;80.10;;;;;;5051486;28;20067;-68
2022/05/19 00:06:44;;;;;;;13.50;2.63;;;19.40;80.10;;;;;;5049719;28;20519;-71
2022/05/19 00:09:11;;;;;;;7.35;2.00;;;19.30;79.90;;;;;;5049658;28;20028;-70
2022/05/19 00:11:38;;;;;;;9.73;2.42;;;19.30;79.90;;;;;;5048506;28;20017;-70
2022/05/19 00:14:05;;;;;;;10.70;2.10;;;19.30;79.80;;;;;;5050365;28;20419;-70
2022/05/19 00:16:32;;;;;;;8.77;2.15;;;19.30;80.00;;;;;;5051027;28;20052;-70
2022/05/19 00:18:59;;;;;;;10.45;3.33;;;19.30;80.00;;;;;;5049397;28;20021;-71
2022/05/19 00:21:26;;;;;;;8.25;2.65;;;19.30;80.10;;;;;;5050952;28;20111;-71
2022/05/19 00:23:53;;;;;;;10.63;3.15;;;19.30;80.10;;;;;;5048270;28;20083;-71
2022/05/19 00:26:20;;;;;;;11.60;3.40;;;19.30;80.00;;;;;;5050716;28;20066;-70
2022/05/19 00:28:47;;;;;;;10.35;3.70;;;19.30;80.00;;;;;;5050087;28;20083;-71
2022/05/19 00:31:13;;;;;;;15.85;3.72;;;19.20;79.90;;;;;;5050237;28;20423;-70
2022/05/19 00:33:40;;;;;;;10.55;3.00;;;19.20;79.90;;;;;;5050741;28;20643;-72
2022/05/19 00:36:17;;;;;;;10.60;2.35;;;19.20;80.00;;;;;;5050026;28;20056;-71
2022/05/19 00:38:44;;;;;;;10.18;3.40;;;19.20;80.10;;;;;;5047904;28;20020;-71
2022/05/19 00:41:12;;;;;;;9.23;3.15;;;19.20;80.10;;;;;;5049496;28;20426;-71
2022/05/19 00:43:41;;;;;;;16.10;3.72;;;19.20;80.20;;;;;;5047881;28;20029;-69
2022/05/19 00:46:18;;;;;;;17.85;2.83;;;19.20;80.20;;;;;;5049690;28;20048;-71
2022/05/19 00:49:06;;;;;;;11.88;2.85;;;19.20;80.20;;;;;;5048376;28;20017;-71
2022/05/19 00:51:47;;;;;;;11.98;4.05;;;19.20;80.20;;;;;;5050294;28;20047;-71
2022/05/19 00:54:17;;;;;;;13.40;4.03;;;19.20;80.20;;;;;;5046280;28;20110;-71
2022/05/19 00:57:21;;;;;;;10.90;3.20;;;19.20;80.20;;;;;;5049849;28;20103;-70
2022/05/19 00:59:54;;;;;;;13.85;3.35;;;19.20;80.20;;;;;;5045337;28;20025;-71
2022/05/19 01:02:25;;;;;;;7.20;2.85;;;19.20;80.00;;;;;;5048833;28;20017;-70
2022/05/19 01:05:14;;;;;;;7.30;2.58;;;19.20;79.90;;;;;;5046877;28;20053;-70
2022/05/19 01:07:52;;;;;;;4.95;2.28;;;19.20;79.60;;;;;;5049441;28;20028;-71
2022/05/19 01:10:19;;;;;;;9.52;3.15;;;19.10;79.20;;;;;;5048967;28;20021;-70
2022/05/19 01:12:49;;;;;;;5.88;2.90;;;19.10;78.90;;;;;;5050200;28;20031;-70
2022/05/19 01:15:16;;;;;;;9.90;2.55;;;19.10;78.70;;;;;;5047871;28;20040;-71
2022/05/19 01:17:43;;;;;;;14.00;2.75;;;19.10;78.40;;;;;;5050441;28;20548;-71
2022/05/19 01:20:24;;;;;;;8.15;2.83;;;19.00;78.20;;;;;;5048606;28;20021;-70
2022/05/19 01:23:28;;;;;;;11.85;2.63;;;19.00;78.10;;;;;;5046428;28;20014;-70
2022/05/19 01:26:23;;;;;;;9.88;3.60;;;19.00;78.00;;;;;;5049409;28;20021;-71
2022/05/19 01:28:50;;;;;;;10.40;2.90;;;19.00;78.10;;;;;;5045954;28;20033;-71
2022/05/19 01:31:33;;;;;;;9.15;3.03;;;18.90;78.00;;;;;;5047129;28;20103;-71
2022/05/19 01:34:02;;;;;;;15.68;3.75;;;18.90;78.00;;;;;;5047560;28;20028;-72
2022/05/19 01:36:29;;;;;;;9.13;3.17;;;18.90;77.90;;;;;;5048739;28;20009;-71
2022/05/19 01:39:06;;;;;;;10.40;3.22;;;18.90;77.90;;;;;;5050010;28;20372;-71
2022/05/19 01:41:57;;;;;;;7.63;3.03;;;18.80;77.90;;;;;;5048160;28;20104;-72
2022/05/19 01:44:23;;;;;;;7.55;2.33;;;18.80;77.90;;;;;;5048438;28;20064;-71
2022/05/19 01:47:08;;;;;;;8.93;2.20;;;18.80;77.90;;;;;;5049097;28;20047;-72
2022/05/19 01:50:10;;;;;;;6.13;1.98;;;18.80;78.00;;;;;;5048450;28;20090;-71
2022/05/19 01:53:01;;;;;;;7.05;1.85;;;18.80;78.20;;;;;;5046606;28;20028;-72
2022/05/19 01:55:43;;;;;;;6.78;2.47;;;18.80;78.30;;;;;;5047544;28;20025;-72
2022/05/19 01:58:19;;;;;;;10.15;2.47;;;18.80;78.50;;;;;;5045059;28;20059;-70
2022/05/19 02:00:48;;;;;;;10.43;3.08;;;18.80;78.60;;;;;;5046251;28;20052;-71
2022/05/19 02:03:37;;;;;;;11.80;2.55;;;18.80;78.70;;;;;;5045551;28;20484;-71
2022/05/19 02:06:32;;;;;;;12.07;4.47;;;18.80;78.70;;;;;;5049581;28;20037;-71
2022/05/19 02:09:24;;;;;;;7.50;1.83;;;18.80;78.60;;;;;;5048144;28;20569;-71
2022/05/19 02:11:56;;;;;;;9.13;2.55;;;18.80;78.60;;;;;;5044415;28;20044;-72
2022/05/19 02:14:37;;;;;;;14.45;6.93;;;18.80;78.60;;;;;;5049323;28;20494;-71
2022/05/19 02:17:10;;;;;;;19.98;6.90;;;18.80;79.00;;;;;;5044741;28;20143;-71
2022/05/19 02:19:41;;;;;;;10.25;4.18;;;18.80;79.20;;;;;;5048530;28;20051;-72
2022/05/19 02:22:11;;;;;;;11.15;3.70;;;18.80;79.40;;;;;;5047533;28;20048;-67
2022/05/19 02:24:42;;;;;;;10.02;3.10;;;18.80;79.50;;;;;;5047716;28;20495;-71
2022/05/19 02:27:56;;;;;;;13.30;4.22;;;18.80;79.50;;;;;;5049981;28;20037;-72
2022/05/19 02:30:29;;;;;;;13.40;3.58;;;18.80;79.50;;;;;;5052002;28;20068;-70
2022/05/19 02:32:56;;;;;;;11.20;3.58;;;18.90;79.60;;;;;;5052557;28;20005;-72
2022/05/19 02:35:24;;;;;;;14.20;2.63;;;18.80;79.70;;;;;;5053145;28;20021;-72
2022/05/19 02:37:51;;;;;;;9.43;3.28;;;18.80;79.70;;;;;;5051639;28;20051;-71
2022/05/19 02:40:20;;;;;;;14.60;3.42;;;18.80;79.60;;;;;;5052797;28;20815;-71
2022/05/19 02:42:47;;;;;;;10.10;3.25;;;18.80;79.50;;;;;;5050260;28;20029;-72
2022/05/19 02:45:16;;;;;;;12.02;3.50;;;18.80;79.30;;;;;;5052308;28;21441;-72
2022/05/19 02:47:43;;;;;;;12.77;4.32;;;18.80;79.30;;;;;;5052106;28;20025;-70
2022/05/19 02:50:11;;;;;;;13.75;3.50;;;18.80;79.30;;;;;;5050330;28;20035;-72
2022/05/19 02:52:38;;;;;;;12.65;3.67;;;18.70;79.80;;;;;;5051600;28;20028;-70
2022/05/19 02:55:05;;;;;;;11.30;3.50;;;18.70;79.00;;;;;;5051696;28;20036;-71
2022/05/19 02:57:32;;;;;;;9.60;3.33;;;18.70;78.90;;;;;;5052640;28;20025;-70
2022/05/19 02:59:59;;;;;;;10.85;3.78;;;18.70;78.90;;;;;;5051472;28;20022;-71
2022/05/19 03:02:26;;;;;;;12.27;2.92;;;18.70;78.90;;;;;;5052221;28;20021;-71
2022/05/19 03:04:53;;;;;;;12.32;3.45;;;18.70;79.00;;;;;;5051113;28;20032;-71
2022/05/19 03:07:20;;;;;;;10.77;3.63;;;18.70;79.10;;;;;;5051066;28;20033;-68
2022/05/19 03:09:46;;;;;;;6.65;2.58;;;18.70;79.80;;;;;;5052373;28;20082;-66
2022/05/19 03:12:14;;;;;;;13.45;2.47;;;18.80;79.20;;;;;;5051018;28;20473;-70
2022/05/19 03:14:40;;;;;;;10.05;2.67;;;18.70;79.20;;;;;;5052700;28;20105;-70
2022/05/19 03:17:08;;;;;;;14.57;3.97;;;18.70;79.10;;;;;;5050955;28;20087;-71
2022/05/19 03:19:36;;;;;;;5.88;3.25;;;18.70;79.10;;;;;;5052508;28;20066;-70
2022/05/19 03:22:04;;;;;;;11.30;2.95;;;18.70;79.80;;;;;;5051203;28;20024;-71
2022/05/19 03:24:30;;;;;;;4.22;2.08;;;18.60;79.00;;;;;;5051327;28;20863;-71
2022/05/19 03:26:57;;;;;;;7.18;2.72;;;18.70;79.00;;;;;;5051933;28;20083;-71
2022/05/19 03:29:24;;;;;;;8.82;2.97;;;18.60;78.90;;;;;;5050623;28;20411;-70
2022/05/19 03:31:50;;;;;;;10.10;2.30;;;18.60;78.90;;;;;;5051894;28;20025;-71
2022/05/19 03:34:17;;;;;;;8.27;2.35;;;18.60;78.90;;;;;;5051143;28;20510;-70
2022/05/19 03:36:48;;;;;;;11.40;2.90;;;18.60;78.90;;;;;;5051692;28;20053;-70
2022/05/19 03:39:15;;;;;;;7.50;2.45;;;18.60;78.90;;;;;;5050628;28;20031;-71
2022/05/19 03:41:42;;;;;;;9.73;1.98;;;18.60;78.90;;;;;;5051896;28;20059;-71
2022/05/19 03:44:08;;;;;;;14.18;3.22;;;18.60;78.80;;;;;;5051168;28;20036;-72
2022/05/19 03:46:35;;;;;;;15.35;2.92;;;18.60;78.90;;;;;;5050686;28;20072;-72
2022/05/19 03:49:02;;;;;;;10.60;2.90;;;18.50;78.90;;;;;;5047658;28;20028;-70
2022/05/19 03:51:32;;;;;;;8.70;2.25;;;18.50;78.90;;;;;;5047831;28;20041;-70
2022/05/19 03:53:59;;;;;;;7.18;2.47;;;18.50;79.60;;;;;;5051487;28;20419;-72
2022/05/19 03:56:26;;;;;;;14.13;2.83;;;18.50;78.80;;;;;;5050485;28;20025;-71
2022/05/19 03:58:53;;;;;;;19.95;3.85;;;18.50;78.80;;;;;;5049626;28;20078;-71
2022/05/19 04:01:21;;;;;;;10.20;2.90;;;18.50;79.00;;;;;;5048354;28;20138;-73
2022/05/19 04:03:48;;;;;;;10.48;2.38;;;18.50;79.30;;;;;;5048332;28;20033;-73
2022/05/19 04:06:14;;;;;;;9.63;1.98;;;18.50;79.20;;;;;;5049170;28;20041;-71
2022/05/19 04:08:41;;;;;;;9.15;2.80;;;18.40;79.10;;;;;;5049476;28;20032;-73
2022/05/19 04:11:07;;;;;;;10.77;2.28;;;18.40;79.00;;;;;;5051294;28;20021;-76
2022/05/19 04:13:34;;;;;;;10.13;3.40;;;18.50;78.20;;;;;;5049437;28;20017;-77
2022/05/19 04:16:00;;;;;;;14.15;3.03;;;18.30;78.10;;;;;;5049543;28;20134;-73
2022/05/19 04:18:27;;;;;;;10.20;4.50;;;18.20;79.20;;;;;;5049875;28;20028;-73
2022/05/19 04:21:33;;;;;;;12.82;6.55;;;18.20;79.90;;;;;;5049600;28;20431;-75
2022/05/19 04:24:00;;;;;;;14.57;5.88;;;18.20;80.40;;;;;;5047824;28;20495;-72
2022/05/19 04:26:27;;;;;;;12.95;3.85;;;18.20;80.60;;;;;;5046327;28;20514;-71
2022/05/19 04:28:53;;;;;;;9.30;3.38;;;18.20;80.60;;;;;;5048793;28;20025;-76
2022/05/19 04:31:20;;;;;;;8.10;2.70;;;18.20;80.40;;;;;;5048235;28;20028;-74
2022/05/19 04:33:46;;;;;;;14.05;2.78;;;18.20;80.00;;;;;;5047900;28;20029;-72
2022/05/19 04:36:13;;;;;;;10.13;2.55;;;18.20;79.80;;;;;;5048005;28;20052;-73
2022/05/19 04:38:48;;;;;;;6.25;3.20;;;18.20;79.60;;;;;;5046261;28;20024;-72
2022/05/19 04:41:14;;;;;;;21.98;9.63;;;18.20;79.70;;;;;;5048062;28;20060;-68
2022/05/19 04:43:41;;;;;;;10.25;6.15;;;18.20;79.50;;;;;;5046843;28;20088;-73
2022/05/19 04:46:07;;;;;;;14.00;6.50;;;18.20;79.80;;;;;;5046464;28;20029;-72
2022/05/19 04:48:35;;;;;;;9.50;3.50;;;18.20;80.00;;;;;;5046025;28;20075;-73
2022/05/19 04:51:02;;;;;;;6.57;2.70;;;18.20;79.80;;;;;;5046933;28;20040;-74
2022/05/19 04:53:29;;;;;;;5.88;2.60;;;18.20;79.30;;;;;;5048306;28;20021;-75
2022/05/19 04:55:55;;;;;;;12.77;2.28;;;18.20;79.10;;;;;;5045697;28;20017;-75
2022/05/19 04:58:23;;;;;;;8.25;2.42;;;18.20;78.90;;;;;;5048461;28;20029;-75
2022/05/19 05:00:51;;;;;;;6.82;2.65;;;18.20;78.90;;;;;;5045802;28;20414;-72
2022/05/19 05:03:18;;;;;;;5.97;2.13;;;18.20;78.80;;;;;;5048184;28;20032;-74
2022/05/19 05:05:45;;;;;;;8.77;2.20;;;18.20;78.70;;;;;;5047497;28;20111;-76
2022/05/19 05:08:12;;;;;;;5.85;1.98;;;18.10;78.50;;;;;;5048554;28;20028;-66
2022/05/19 05:10:39;;;;;;;6.68;1.90;;;18.10;78.50;;;;;;5048332;28;20434;-72
2022/05/19 05:13:11;;;;;;;5.53;1.60;;;18.10;78.50;;;;;;5046370;28;20092;-74
2022/05/19 05:15:38;;;;;;;4.07;1.73;;;18.10;78.40;;;;;;5046701;28;20033;-74
2022/05/19 05:18:06;;;;;;;16.55;3.05;;;18.10;78.60;;;;;;5045315;28;20083;-74
2022/05/19 05:20:33;;;;;;;8.45;2.60;;;18.10;78.60;;;;;;5047710;28;20025;-73
2022/05/19 05:23:00;;;;;;;5.85;2.05;;;18.10;79.10;;;;;;5047054;28;20416;-75
2022/05/19 05:25:29;;;;;;;7.63;2.28;;;18.10;79.10;;;;;;5048252;28;20033;-75
2022/05/19 05:27:58;;;;;;;9.13;2.10;;;18.10;79.20;;;;;;5047792;28;20021;-75
2022/05/19 05:30:26;;;;;;;5.30;2.35;;;18.10;79.10;;;;;;5047272;28;20040;-71
2022/05/19 05:32:52;;;;;;;5.57;1.98;;;18.10;79.10;;;;;;5047747;28;20055;-73
2022/05/19 05:35:19;;;;;;;5.53;1.85;;;18.10;79.50;;;;;;5044205;28;20016;-73
2022/05/19 05:37:46;;;;;;;13.80;3.10;;;18.10;79.10;;;;;;5047351;28;20100;-75
2022/05/19 05:40:13;;;;;;;8.65;2.28;;;18.10;79.20;;;;;;5046952;28;20044;-74
2022/05/19 05:42:40;;;;;;;9.40;1.92;;;18.10;79.30;;;;;;5046198;28;20375;-75
2022/05/19 05:45:08;;;;;;;7.85;2.55;;;18.10;79.40;;;;;;5046602;28;20009;-75
2022/05/19 05:47:35;;;;;;;5.40;1.83;;;18.10;79.50;;;;;;5041842;28;20395;-76
2022/05/19 05:50:01;;;;;;;11.20;2.25;;;18.10;79.50;;;;;;5047937;28;20060;-69
2022/05/19 05:52:27;;;;;;;4.40;1.63;;;18.10;79.50;;;;;;5046878;28;20032;-74
2022/05/19 05:54:55;;;;;;;8.88;2.88;;;18.10;79.50;;;;;;5048174;28;20027;-75
2022/05/19 05:57:21;;;;;;;8.02;2.63;;;18.10;79.50;;;;;;5046832;28;20104;-75
2022/05/19 05:59:48;;;;;;;8.57;3.55;;;18.10;79.40;;;;;;5047811;28;20032;-74
2022/05/19 06:02:17;;;;;;;14.05;2.85;;;18.10;79.50;;;;;;5046832;28;20060;-73
2022/05/19 06:04:43;;;;;;;9.07;2.35;;;18.10;79.50;;;;;;5046866;28;20988;-75
2022/05/19 06:07:20;;;;;;;;;;;;;;;;;;;;;
2022/05/19 06:09:47;;;;;;;11.88;2.78;;;18.10;79.50;;;;;;5045817;28;20029;-74
2022/05/19 06:12:14;;;;;;;7.78;2.17;;;18.10;79.60;;;;;;5046250;28;20044;-74
2022/05/19 06:14:40;;;;;;;7.40;2.90;;;18.10;79.70;;;;;;5045434;28;20041;-75
2022/05/19 06:17:07;;;;;;;7.28;2.10;;;18.10;79.70;;;;;;5047177;28;20080;-74
2022/05/19 06:19:33;;;;;;;10.68;2.30;;;18.00;79.70;;;;;;5046025;28;20013;-75
2022/05/19 06:22:00;;;;;;;6.32;2.63;;;18.10;79.90;;;;;;5047141;28;20549;-73
2022/05/19 06:24:26;;;;;;;4.22;2.17;;;18.10;80.00;;;;;;5045401;28;20017;-73
2022/05/19 06:26:53;;;;;;;8.48;2.65;;;18.10;80.00;;;;;;5046042;28;20033;-73
2022/05/19 06:29:23;;;;;;;6.20;2.25;;;18.10;80.10;;;;;;5046413;28;20060;-72
2022/05/19 06:31:50;;;;;;;9.80;2.45;;;18.10;80.10;;;;;;5042758;28;20025;-72
2022/05/19 06:34:16;;;;;;;8.30;2.08;;;18.00;80.10;;;;;;5045734;28;20014;-70
2022/05/19 06:36:43;;;;;;;8.88;2.50;;;18.10;80.10;;;;;;5043348;28;20013;-73
2022/05/19 06:39:11;;;;;;;11.75;2.88;;;18.10;80.10;;;;;;5039951;28;20072;-73
2022/05/19 06:44:22;;;;;;;11.40;3.35;;;18.00;80.00;;;;;;5041814;28;20032;-73
2022/05/19 06:46:50;;;;;;;5.70;2.08;;;18.00;80.00;;;;;;5045010;28;20066;-65
2022/05/19 06:49:17;;;;;;;7.32;2.80;;;18.00;80.50;;;;;;5041528;28;20032;-70
2022/05/19 06:51:44;;;;;;;11.32;3.17;;;18.00;80.10;;;;;;5045394;28;20147;-72
2022/05/19 06:54:11;;;;;;;6.50;2.50;;;18.00;80.40;;;;;;5044378;28;20029;-67
2022/05/19 06:56:38;;;;;;;8.75;2.85;;;18.10;80.60;;;;;;5045456;28;20064;-74
2022/05/19 06:59:05;;;;;;;8.98;2.47;;;18.10;80.80;;;;;;5042404;28;20102;-72
2022/05/19 07:01:32;;;;;;;9.95;2.80;;;18.10;81.50;;;;;;5044563;28;20009;-74
2022/05/19 07:03:58;;;;;;;13.27;2.92;;;18.10;81.00;;;;;;5045920;28;20124;-73
2022/05/19 07:06:25;;;;;;;8.32;3.47;;;18.20;81.00;;;;;;5043939;28;20114;-68
2022/05/19 07:08:51;;;;;;;9.82;2.45;;;18.20;81.00;;;;;;5041559;28;20025;-73
2022/05/19 07:11:27;;;;;;;9.02;2.42;;;18.20;81.00;;;;;;5043542;28;20036;-72
2022/05/19 07:14:02;;;;;;;7.15;2.22;;;18.20;81.00;;;;;;5047568;28;20464;-74
2022/05/19 07:16:31;;;;;;;13.25;2.35;;;18.20;80.80;;;;;;5047054;28;20076;-70
2022/05/19 07:21:44;;;;;;;8.23;2.63;;;18.20;80.60;;;;;;5048579;28;20040;-71
2022/05/19 07:24:16;;;;;;;10.60;3.65;;;18.20;80.60;;;;;;5047432;28;20044;-72
2022/05/19 07:26:44;;;;;;;8.40;3.78;;;18.20;80.60;;;;;;5049217;28;20032;-69
2022/05/19 07:29:11;;;;;;;9.13;3.17;;;18.20;80.70;;;;;;5045159;28;20049;-72
2022/05/19 07:31:38;;;;;;;14.55;4.18;;;18.20;80.70;;;;;;5048210;28;20032;-75
2022/05/19 07:34:08;;;;;;;14.85;4.53;;;18.20;80.70;;;;;;5042562;28;20116;-73
2022/05/19 07:36:35;;;;;;;19.58;5.97;;;18.20;80.80;;;;;;5045764;28;20047;-74
2022/05/19 07:39:02;;;;;;;36.42;16.13;;;18.20;81.00;;;;;;5045458;28;20087;-73
2022/05/19 07:41:31;;;;;;;16.83;9.18;;;18.20;81.30;;;;;;5046227;28;20104;-76
2022/05/19 07:43:58;;;;;;;12.27;6.10;;;18.20;81.30;;;;;;5046294;28;20029;-75
2022/05/19 07:46:28;;;;;;;13.50;4.65;;;18.30;81.20;;;;;;5047312;28;20033;-76
2022/05/19 07:48:57;;;;;;;10.02;4.03;;;18.30;81.20;;;;;;5048098;28;20017;-72
2022/05/19 07:51:26;;;;;;;11.52;3.78;;;18.40;81.20;;;;;;5047021;28;20083;-76
2022/05/19 07:53:53;;;;;;;13.13;3.20;;;18.30;81.20;;;;;;5043412;28;20116;-76
2022/05/19 07:56:20;;;;;;;11.93;2.83;;;18.40;81.20;;;;;;5048237;28;20029;-75
2022/05/19 07:58:53;;;;;;;7.03;3.17;;;18.40;81.20;;;;;;5046258;28;20024;-75
2022/05/19 08:01:20;;;;;;;14.38;4.55;;;18.40;81.20;;;;;;5046859;28;20029;-74
2022/05/19 08:03:47;;;;;;;15.50;3.53;;;18.50;81.20;;;;;;5042832;28;20021;-73
2022/05/19 08:06:13;;;;;;;10.80;3.15;;;18.50;81.20;;;;;;5047054;28;20048;-73
2022/05/19 08:08:40;;;;;;;21.33;5.93;;;18.50;81.20;;;;;;5046081;28;20121;-73
2022/05/19 08:11:07;;;;;;;25.17;14.07;;;18.50;81.10;;;;;;5046659;28;20197;-76
2022/05/19 08:16:18;;;;;;;14.48;5.20;;;18.60;80.70;;;;;;5045483;28;20060;-76
2022/05/19 08:18:45;;;;;;;12.15;4.72;;;18.70;80.50;;;;;;5046807;28;20025;-76
2022/05/19 08:21:12;;;;;;;21.55;3.88;;;18.70;80.30;;;;;;5045422;28;20134;-76
2022/05/19 08:23:45;;;;;;;37.20;6.40;;;18.70;79.90;;;;;;5047192;28;20104;-73
2022/05/19 08:26:13;;;;;;;29.48;5.18;;;18.80;79.20;;;;;;5048072;28;20028;-74
2022/05/19 08:28:41;;;;;;;24.13;4.35;;;18.80;78.80;;;;;;5045006;28;20349;-72
2022/05/19 08:31:14;;;;;;;17.45;3.65;;;18.80;78.70;;;;;;5046179;28;20032;-74
2022/05/19 08:33:42;;;;;;;12.75;3.25;;;18.90;78.40;;;;;;5045744;28;20021;-73
2022/05/19 08:36:10;;;;;;;10.98;2.50;;;18.90;78.00;;;;;;5046708;28;20542;-69
2022/05/19 08:38:37;;;;;;;9.52;3.00;;;18.90;77.60;;;;;;5046189;28;20107;-75
2022/05/19 08:41:17;;;;;;;5.38;2.42;;;19.00;77.10;;;;;;5047278;28;20044;-73
2022/05/19 08:43:59;;;;;;;3.10;1.75;;;19.00;76.80;;;;;;5047553;28;20496;-70
2022/05/19 08:46:33;;;;;;;3.42;1.73;;;19.00;76.40;;;;;;5044573;28;20059;-74
2022/05/19 08:49:08;;;;;;;3.00;1.00;;;19.00;75.80;;;;;;5046262;28;20330;-75
2022/05/19 08:51:45;;;;;;;1.90;0.90;;;19.00;75.40;;;;;;5046319;28;20043;-71
2022/05/19 08:54:16;;;;;;;2.88;1.10;;;18.90;75.10;;;;;;5046485;28;20025;-68
2022/05/19 08:56:55;;;;;;;1.55;1.38;;;18.90;74.80;;;;;;5048167;28;20021;-70
2022/05/19 09:00:07;;;;;;;2.17;1.23;;;18.80;74.60;;;;;;5045033;28;20028;-71
2022/05/19 09:02:43;;;;;;;3.60;1.10;;;18.80;74.40;;;;;;5040470;28;20488;-75
2022/05/19 09:05:15;;;;;;;6.53;1.15;;;18.70;74.20;;;;;;5046503;28;20029;-74
2022/05/19 09:08:09;;;;;;;4.53;1.20;;;18.70;74.10;;;;;;5045507;28;20040;-72
2022/05/19 09:10:56;;;;;;;12.20;2.30;;;18.70;74.20;;;;;;5047492;28;20154;-72
2022/05/19 09:13:41;;;;;;;13.43;3.65;;;18.60;74.40;;;;;;5046651;28;20017;-70
2022/05/19 09:16:21;;;;;;;6.05;4.30;;;18.60;74.80;;;;;;5044231;28;20707;-74
2022/05/19 09:19:14;;;;;;;4.25;3.30;;;18.70;75.10;;;;;;5045632;28;20491;-70
2022/05/19 09:21:42;;;;;;;6.70;3.08;;;18.70;75.70;;;;;;5043756;28;20072;-71
2022/05/19 09:24:12;;;;;;;8.35;1.83;;;18.70;76.20;;;;;;5043340;28;20061;-71
2022/05/19 09:26:52;;;;;;;4.57;1.55;;;18.80;76.50;;;;;;5044276;28;20037;-72
2022/05/19 09:29:41;;;;;;;8.55;1.77;;;18.80;76.50;;;;;;5045681;28;20017;-68
2022/05/19 09:32:16;;;;;;;7.90;2.05;;;18.80;76.30;;;;;;5042939;28;20037;-77
2022/05/19 09:34:51;;;;;;;10.25;1.90;;;18.90;76.20;;;;;;5046035;28;20028;-75
2022/05/19 09:37:36;;;;;;;12.95;3.38;;;18.90;76.00;;;;;;5045738;28;20021;-71
2022/05/19 09:40:12;;;;;;;6.95;1.63;;;19.00;75.90;;;;;;5045249;28;20021;-73
2022/05/19 09:42:58;;;;;;;7.13;2.30;;;19.00;75.30;;;;;;5040181;28;20610;-70
2022/05/19 09:45:29;;;;;;;5.35;1.65;;;19.00;74.80;;;;;;5042088;28;20033;-75
2022/05/19 09:48:03;;;;;;;8.32;1.48;;;19.10;74.40;;;;;;5044565;28;20036;-73
2022/05/19 09:50:36;;;;;;;5.30;1.43;;;19.10;74.10;;;;;;5045494;28;20071;-68
2022/05/19 09:53:12;;;;;;;5.07;1.40;;;19.10;73.80;;;;;;5045555;28;20074;-73
2022/05/19 09:55:39;;;;;;;8.05;2.10;;;19.20;73.40;;;;;;5044823;28;20071;-67
2022/05/19 09:58:10;;;;;;;9.20;1.92;;;19.20;72.90;;;;;;5044952;28;20547;-74
2022/05/19 10:00:51;;;;;;;13.57;7.13;;;19.20;72.40;;;;;;5043811;28;21080;-74
2022/05/19 10:03:24;;;;;;;8.98;4.28;;;19.30;72.30;;;;;;5044956;28;20013;-77
2022/05/19 10:05:56;;;;;;;7.65;4.57;;;19.30;72.00;;;;;;5045192;28;20025;-73
2022/05/19 10:08:27;;;;;;;5.22;2.25;;;19.30;71.40;;;;;;5044150;28;20040;-72
2022/05/19 10:11:00;;;;;;;6.13;2.00;;;19.40;71.20;;;;;;5045921;28;20057;-76
2022/05/19 10:13:39;;;;;;;9.30;2.50;;;19.40;70.80;;;;;;5039040;28;20028;-67
2022/05/19 10:16:19;;;;;;;10.82;2.20;;;19.50;70.90;;;;;;5041989;28;20519;-78
2022/05/19 10:19:08;;;;;;;9.35;2.65;;;19.60;70.40;;;;;;5045428;28;20021;-77
2022/05/19 10:22:08;;;;;;;8.55;2.30;;;19.60;70.00;;;;;;5044368;28;20523;-77
2022/05/19 10:25:06;;;;;;;13.32;2.83;;;19.70;69.50;;;;;;5042990;28;20165;-65
2022/05/19 10:31:04;;;;;;;7.22;2.55;;;19.80;68.60;;;;;;5044329;28;20040;-73
2022/05/19 10:33:54;;;;;;;11.93;7.50;;;19.80;68.30;;;;;;5038731;28;20888;-75
2022/05/19 10:36:51;;;;;;;12.85;8.32;;;19.90;68.20;;;;;;5044021;28;20013;-74
2022/05/19 10:39:35;;;;;;;10.10;5.38;;;19.90;68.30;;;;;;5044189;28;20033;-76
2022/05/19 10:42:14;;;;;;;7.68;3.67;;;19.90;67.40;;;;;;5036691;28;20055;-76
2022/05/19 10:44:53;;;;;;;7.57;3.17;;;19.90;66.80;;;;;;5038315;28;20025;-74
2022/05/19 10:47:38;;;;;;;5.10;2.65;;;19.90;66.30;;;;;;5039923;28;20128;-74
2022/05/19 10:50:27;;;;;;;7.10;1.83;;;19.90;65.60;;;;;;5045848;28;20063;-67
2022/05/19 10:53:24;;;;;;;3.72;1.83;;;19.90;65.10;;;;;;5042954;28;20044;-66
2022/05/19 10:55:53;;;;;;;3.47;1.52;;;19.80;64.50;;;;;;5041807;28;20170;-66
2022/05/19 10:58:38;;;;;;;4.07;1.38;;;19.80;63.80;;;;;;5048895;28;20021;-66
2022/05/19 11:01:29;;;;;;;2.88;1.27;;;19.80;62.90;;;;;;5046094;28;20029;-69
2022/05/19 11:04:15;;;;;;;7.78;2.25;;;19.80;62.60;;;;;;5045971;28;20039;-72
2022/05/19 11:06:50;;;;;;;4.78;2.70;;;19.80;62.70;;;;;;5048289;28;20033;-68
2022/05/19 11:10:06;;;;;;;7.85;2.03;;;19.70;62.80;;;;;;5047097;28;20017;-69
2022/05/19 11:13:07;;;;;;;6.55;2.50;;;19.70;63.20;;;;;;5030520;28;20041;-67
2022/05/19 11:16:09;;;;;;;5.80;3.47;;;19.70;63.50;;;;;;5041160;28;20736;-77
2022/05/19 11:18:39;;;;;;;5.47;1.63;;;19.70;63.50;;;;;;5045383;28;20037;-68
2022/05/19 11:21:38;;;;;;;4.13;1.15;;;19.70;63.00;;;;;;5044200;28;20411;-76
2022/05/19 11:24:24;;;;;;;4.25;0.90;;;19.70;63.10;;;;;;5043817;28;20049;-68
2022/05/19 11:27:14;;;;;;;5.43;1.13;;;19.80;63.00;;;;;;5044049;28;20037;-72
2022/05/19 11:29:46;;;;;;;2.13;0.60;;;19.80;63.00;;;;;;5046086;28;20056;-66
2022/05/19 11:32:17;;;;;;;4.50;0.82;;;19.80;62.60;;;;;;5048636;28;20035;-69
2022/05/19 11:35:05;;;;;;;2.90;1.52;;;19.80;62.50;;;;;;5048387;28;20728;-73
2022/05/19 11:37:40;;;;;;;10.60;1.25;;;19.80;61.80;;;;;;5047252;28;20062;-67
2022/05/19 11:40:26;;;;;;;3.67;0.90;;;19.80;61.60;;;;;;5046738;28;20079;-69
2022/05/19 11:43:39;;;;;;;12.70;0.98;;;19.90;62.00;;;;;;5047374;28;20037;-72
2022/05/19 11:46:11;;;;;;;12.85;1.40;;;19.90;62.00;;;;;;5025464;28;20072;-72
2022/05/19 11:58:01;;;;;;;15.05;1.88;;;20.30;61.30;;;;;;5046285;28;20067;-71
2022/05/19 12:00:35;;;;;;;12.38;2.05;;;20.50;61.10;;;;;;5046974;28;20033;-68
2022/05/19 12:03:08;;;;;;;9.10;1.55;;;20.50;61.00;;;;;;5047484;28;20059;-66
2022/05/19 12:05:53;;;;;;;10.43;2.25;;;20.60;60.90;;;;;;5046363;28;20049;-71
2022/05/19 12:08:29;;;;;;;8.18;2.88;;;20.70;60.20;;;;;;5047974;28;20017;-67
2022/05/19 12:11:22;;;;;;;3.35;1.92;;;20.70;59.30;;;;;;5047679;28;20037;-72
2022/05/19 12:14:13;;;;;;;6.00;1.95;;;20.70;58.70;;;;;;5047511;28;20024;-68
2022/05/19 12:16:51;;;;;;;10.52;1.60;;;20.70;58.30;;;;;;5047418;28;20045;-69
2022/05/19 12:19:42;;;;;;;7.97;1.77;;;20.70;58.60;;;;;;5047539;28;20032;-68
2022/05/19 12:22:26;;;;;;;8.35;1.20;;;20.70;58.80;;;;;;5046688;28;20025;-68
2022/05/19 12:25:11;;;;;;;2.47;1.15;;;20.60;58.80;;;;;;5049134;28;20079;-70
2022/05/19 12:27:37;;;;;;;8.80;1.33;;;20.60;58.70;;;;;;5046642;28;20032;-76
2022/05/19 12:33:20;;;;;;;7.40;1.15;;;20.50;58.90;;;;;;5048517;28;20032;-77
2022/05/19 12:36:31;;;;;;;6.25;1.00;;;20.50;59.30;;;;;;5046864;28;20087;-74
2022/05/19 12:39:16;;;;;;;4.00;0.95;;;20.50;59.30;;;;;;5045788;28;20109;-74
2022/05/19 12:41:51;;;;;;;3.55;1.58;;;20.50;58.90;;;;;;5048744;28;20017;-76
2022/05/19 12:44:39;;;;;;;6.45;1.30;;;20.50;58.70;;;;;;5047385;28;20396;-76
2022/05/19 12:47:22;;;;;;;6.72;0.98;;;20.60;58.70;;;;;;5047069;28;20368;-77
2022/05/19 12:50:10;;;;;;;5.38;1.20;;;20.60;58.50;;;;;;5047079;28;20059;-77
2022/05/19 12:53:05;;;;;;;2.20;0.77;;;20.70;58.20;;;;;;5047337;28;20017;-76
2022/05/19 12:55:42;;;;;;;3.58;1.30;;;20.70;57.60;;;;;;5047683;28;20059;-77
2022/05/19 12:58:46;;;;;;;2.42;0.85;;;20.70;57.40;;;;;;5045987;28;20024;-77
2022/05/19 13:01:19;;;;;;;2.65;0.70;;;20.70;57.50;;;;;;5047777;28;20048;-74
2022/05/19 13:03:54;;;;;;;3.22;1.05;;;20.70;57.00;;;;;;5047376;28;20051;-74
2022/05/19 13:06:22;;;;;;;;;;;20.70;57.20;;;;;;5047056;28;20031;-77
2022/05/19 13:08:54;;;;;;;9.80;1.98;;;20.70;56.90;;;;;;5047336;28;19905;-75
2022/05/19 13:11:31;;;;;;;4.75;0.90;;;20.70;56.80;;;;;;5045734;28;20481;-67
2022/05/19 13:14:22;;;;;;;5.68;1.05;;;20.70;57.00;;;;;;5047336;28;20083;-71
2022/05/19 13:16:51;;;;;;;0.55;0.50;;;20.70;57.50;;;;;;5047215;28;20131;-70
2022/05/19 13:19:39;;;;;;;3.60;0.73;;;20.70;57.10;;;;;;5046909;28;20032;-74
2022/05/19 13:22:09;;;;;;;7.57;1.20;;;20.70;56.60;;;;;;5047801;28;20107;-69
2022/05/19 13:24:40;;;;;;;4.72;0.73;;;20.70;56.30;;;;;;5046683;28;20052;-76
2022/05/19 13:32:39;;;;;;;3.25;2.15;;;20.70;55.60;;;;;;5045682;28;20035;-77
2022/05/19 13:35:17;;;;;;;3.95;3.17;;;20.60;55.30;;;;;;5046373;28;20020;-74
2022/05/19 13:37:46;;;;;;;7.13;5.78;;;20.60;55.30;;;;;;5045854;28;20021;-77
2022/05/19 13:40:29;;;;;;;14.57;9.98;;;20.50;55.30;;;;;;5046756;28;20024;-71
2022/05/19 13:43:32;;;;;;;14.98;9.02;;;20.50;54.80;;;;;;5046788;28;20021;-70
2022/05/19 13:46:05;;;;;;;20.27;10.77;;;20.40;55.20;;;;;;5038553;28;20045;-76
2022/05/19 13:48:38;;;;;;;19.30;15.18;;;20.40;55.20;;;;;;5046736;28;20025;-70